Time;durP1;ratioP1;P1;durP2;ratioP2;P2;SDS_P1;SDS_P2;PMS_P1;PMS_P2;Temp;Humidity;BMP_temperature;BMP_pressure;BME280_temperature;BME280_humidity;BME280_pressure;Samples;Min_cycle;Max_cycle;Signal;HPM_P1;HPM_P2
2021/04/27 00:00:51;;;;;;;10.73;6.25;;;6.90;78.50;;;;;;6228261;28;20029;-81
2021/04/27 00:03:51;;;;;;;9.95;6.82;;;7.10;78.70;;;;;;6245039;28;20049;-79
2021/04/27 00:06:52;;;;;;;9.18;6.38;;;6.50;92.40;;;;;;6228235;28;20029;-81
2021/04/27 00:09:53;;;;;;;9.05;6.05;;;6.70;78.10;;;;;;6245046;28;20487;-79
2021/04/27 00:12:53;;;;;;;8.10;5.85;;;6.60;79.20;;;;;;6244961;28;20112;-79
2021/04/27 00:15:54;;;;;;;10.98;6.40;;;6.40;78.70;;;;;;6244667;28;20037;-79
2021/04/27 00:18:55;;;;;;;8.32;6.32;;;6.50;78.00;;;;;;6245988;28;20025;-79
2021/04/27 00:21:56;;;;;;;7.32;6.00;;;;;;;;;;6244481;28;20036;-79
2021/04/27 00:24:56;;;;;;;9.00;6.07;;;6.50;73.60;;;;;;6228009;28;20037;-79
2021/04/27 00:27:57;;;;;;;12.23;6.32;;;6.50;77.50;;;;;;6228283;28;20468;-79
2021/04/27 00:30:58;;;;;;;8.35;5.68;;;7.50;75.50;;;;;;6227896;28;20029;-79
2021/04/27 00:33:58;;;;;;;9.18;6.20;;;7.30;73.20;;;;;;6244078;28;20033;-80
2021/04/27 00:36:59;;;;;;;11.25;6.25;;;7.50;73.40;;;;;;6244502;28;20033;-79
2021/04/27 00:39:59;;;;;;;7.65;5.80;;;7.50;73.00;;;;;;6227564;28;20041;-78
2021/04/27 00:43:00;;;;;;;10.02;6.30;;;7.40;90.30;;;;;;6227392;28;20058;-79
2021/04/27 00:46:01;;;;;;;9.95;6.75;;;7.20;73.50;;;;;;6211486;28;20029;-79
2021/04/27 00:49:01;;;;;;;8.40;5.75;;;7.30;83.60;;;;;;6244051;28;20037;-79
2021/04/27 00:52:02;;;;;;;8.35;5.55;;;7.40;70.70;;;;;;6211050;28;20064;-80
2021/04/27 00:55:04;;;;;;;10.68;6.03;;;7.50;69.70;;;;;;6243428;28;20025;-79
2021/04/27 00:58:05;;;;;;;8.90;6.00;;;7.60;68.90;;;;;;6227541;28;20060;-79
2021/04/27 01:01:06;;;;;;;9.38;6.65;;;8.00;70.80;;;;;;6226954;28;20688;-79
2021/04/27 01:04:07;;;;;;;8.73;6.60;;;7.00;90.10;;;;;;6211121;28;20696;-78
2021/04/27 01:07:09;;;;;;;9.85;6.15;;;6.90;95.50;;;;;;6242583;28;20387;-78
2021/04/27 01:10:11;;;;;;;8.45;5.95;;;6.70;95.70;;;;;;6227633;28;20117;-79
2021/04/27 01:13:50;;;;;;;7.20;5.90;;;6.70;90.10;;;;;;6227383;28;20034;-78
2021/04/27 01:16:56;;;;;;;8.88;5.38;;;6.70;89.30;;;;;;6253940;28;20033;-79
2021/04/27 01:20:03;;;;;;;9.07;5.85;;;6.60;88.20;;;;;;6227690;28;20034;-79
2021/04/27 01:23:25;;;;;;;9.10;6.20;;;6.40;82.80;;;;;;6227236;28;20511;-78
2021/04/27 01:26:33;;;;;;;7.78;5.55;;;6.60;95.90;;;;;;6242977;28;20084;-79
2021/04/27 01:29:34;;;;;;;9.98;6.68;;;;;;;;;;6227327;28;20029;-78
2021/04/27 01:32:35;;;;;;;7.85;6.25;;;6.30;96.50;;;;;;6226414;28;20033;-79
2021/04/27 01:35:36;;;;;;;8.50;6.28;;;;;;;;;;6210255;28;20411;-78
2021/04/27 01:38:37;;;;;;;15.30;7.70;;;;;;;;;;6242651;28;20033;-79
2021/04/27 01:41:38;;;;;;;8.63;5.95;;;6.30;96.10;;;;;;6242822;28;20480;-79
2021/04/27 01:44:39;;;;;;;8.90;6.65;;;;;;;;;;6225090;28;20069;-79
2021/04/27 01:47:39;;;;;;;6.63;5.70;;;6.30;76.50;;;;;;6242866;28;20025;-79
2021/04/27 01:50:41;;;;;;;7.30;5.57;;;6.50;76.40;;;;;;6225272;28;20033;-80
2021/04/27 01:53:43;;;;;;;14.25;6.93;;;6.10;75.20;;;;;;6226246;28;20022;-79
2021/04/27 01:56:44;;;;;;;11.40;7.35;;;6.10;88.60;;;;;;6225803;28;20064;-79
2021/04/27 01:59:44;;;;;;;8.15;7.00;;;6.20;77.50;;;;;;6225936;28;20446;-78
2021/04/27 02:02:45;;;;;;;7.57;5.88;;;6.00;78.90;;;;;;6209633;28;20148;-79
2021/04/27 02:05:46;;;;;;;8.70;6.50;;;6.30;77.90;;;;;;6241849;28;20384;-79
2021/04/27 02:09:04;;;;;;;10.38;6.40;;;6.20;77.60;;;;;;6225700;28;20029;-79
2021/04/27 02:12:05;;;;;;;8.07;5.95;;;5.90;73.10;;;;;;6242213;28;20029;-80
2021/04/27 02:15:08;;;;;;;10.68;6.53;;;6.10;74.00;;;;;;6225486;28;20044;-79
2021/04/27 02:18:22;;;;;;;8.50;6.88;;;6.20;75.70;;;;;;6225016;28;20036;-79
2021/04/27 02:21:23;;;;;;;9.70;6.93;;;6.20;71.90;;;;;;6210784;28;20033;-79
2021/04/27 02:24:24;;;;;;;9.00;6.00;;;6.00;76.00;;;;;;6225403;28;20041;-79
2021/04/27 02:27:25;;;;;;;7.75;6.00;;;6.00;76.40;;;;;;6225509;28;20391;-78
2021/04/27 02:30:25;;;;;;;8.40;6.10;;;6.50;76.70;;;;;;6209029;28;20037;-78
2021/04/27 02:33:26;;;;;;;9.75;6.60;;;6.20;77.00;;;;;;6225634;28;20207;-78
2021/04/27 02:36:27;;;;;;;9.43;6.45;;;5.90;76.50;;;;;;6225542;28;20464;-78
2021/04/27 02:39:28;;;;;;;10.57;7.25;;;6.30;78.50;;;;;;6225086;28;20033;-78
2021/04/27 02:42:29;;;;;;;8.95;7.18;;;6.10;79.50;;;;;;6241374;28;20160;-78
2021/04/27 02:45:32;;;;;;;8.60;6.60;;;5.90;80.00;;;;;;6225417;28;20037;-78
2021/04/27 02:48:32;;;;;;;8.75;6.68;;;6.60;78.50;;;;;;6241894;28;20021;-79
2021/04/27 02:51:33;;;;;;;8.30;6.38;;;6.80;81.30;;;;;;6241314;28;20084;-79
2021/04/27 02:54:34;;;;;;;9.63;7.03;;;5.30;81.10;;;;;;6243183;28;20033;-79
2021/04/27 02:57:35;;;;;;;8.13;6.88;;;6.80;82.30;;;;;;6224772;28;20551;-78
2021/04/27 03:00:35;;;;;;;9.43;6.90;;;5.30;81.70;;;;;;6208810;28;20032;-79
2021/04/27 03:03:36;;;;;;;11.07;7.03;;;5.30;80.50;;;;;;6225045;28;20033;-79
2021/04/27 03:06:36;;;;;;;8.85;6.95;;;5.70;79.30;;;;;;6224919;28;20034;-79
2021/04/27 03:09:37;;;;;;;10.52;7.05;;;6.70;79.30;;;;;;6208685;28;20039;-79
2021/04/27 03:12:38;;;;;;;9.00;6.82;;;6.00;79.10;;;;;;6224664;28;20065;-79
2021/04/27 03:15:38;;;;;;;8.25;6.78;;;6.70;79.30;;;;;;6208566;28;20030;-79
2021/04/27 03:18:39;;;;;;;12.75;6.95;;;6.40;79.80;;;;;;6224820;28;20466;-79
2021/04/27 03:21:40;;;;;;;12.13;7.55;;;5.40;78.90;;;;;;6241698;28;20029;-79
2021/04/27 03:24:40;;;;;;;13.93;7.20;;;5.20;90.90;;;;;;6241536;28;20057;-80
2021/04/27 03:27:41;;;;;;;9.98;7.50;;;5.60;79.90;;;;;;6208530;28;20044;-79
2021/04/27 03:30:42;;;;;;;8.15;6.72;;;5.80;80.40;;;;;;6227422;28;20076;-79
2021/04/27 03:33:43;;;;;;;10.70;6.65;;;;;;;;;;6229373;28;20542;-78
2021/04/27 03:36:43;;;;;;;10.35;6.63;;;5.30;76.30;;;;;;6247336;28;20049;-80
2021/04/27 03:39:44;;;;;;;10.43;6.65;;;6.90;81.70;;;;;;6229509;28;20029;-79
2021/04/27 03:42:45;;;;;;;10.75;7.30;;;5.50;81.40;;;;;;6246527;28;20053;-79
2021/04/27 03:45:45;;;;;;;13.27;8.90;;;5.30;81.70;;;;;;6245728;28;20429;-78
2021/04/27 03:48:46;;;;;;;11.07;6.72;;;5.00;91.70;;;;;;6212897;28;20028;-78
2021/04/27 03:51:46;;;;;;;10.63;7.60;;;5.30;82.60;;;;;;6246497;28;20033;-79
2021/04/27 03:54:47;;;;;;;9.20;6.75;;;4.60;94.50;;;;;;6245391;28;20029;-78
2021/04/27 03:57:51;;;;;;;14.75;7.88;;;4.50;80.70;;;;;;6212267;28;20033;-79
2021/04/27 04:00:51;;;;;;;11.13;7.55;;;5.00;85.10;;;;;;6228606;28;20033;-79
2021/04/27 04:03:52;;;;;;;11.65;8.23;;;5.00;83.90;;;;;;6228882;28;20096;-79
2021/04/27 04:06:52;;;;;;;9.43;7.07;;;5.60;84.80;;;;;;6228583;28;20120;-79
2021/04/27 04:09:53;;;;;;;12.20;7.03;;;4.50;84.80;;;;;;6245489;28;20037;-79
2021/04/27 04:12:54;;;;;;;14.52;8.30;;;4.80;84.90;;;;;;6244892;28;20417;-78
2021/04/27 04:15:54;;;;;;;11.35;7.80;;;5.40;86.40;;;;;;6228333;28;20373;-79
2021/04/27 04:18:55;;;;;;;19.65;11.75;;;4.40;93.60;;;;;;6244566;28;20424;-79
2021/04/27 04:21:56;;;;;;;10.75;7.50;;;4.80;86.30;;;;;;6244226;28;20531;-79
2021/04/27 04:24:56;;;;;;;12.07;7.60;;;4.40;86.20;;;;;;6211508;28;20069;-80
2021/04/27 04:27:57;;;;;;;11.30;7.82;;;;;;;;;;6244938;28;20076;-79
2021/04/27 04:30:58;;;;;;;9.88;7.00;;;4.50;82.00;;;;;;6244326;28;20427;-79
2021/04/27 04:33:59;;;;;;;10.65;6.75;;;4.40;94.80;;;;;;6245553;28;20056;-78
2021/04/27 04:36:59;;;;;;;11.10;6.50;;;4.90;86.50;;;;;;6211586;28;20690;-79
2021/04/27 04:40:00;;;;;;;11.65;6.88;;;7.10;85.80;;;;;;6227370;28;20033;-80
2021/04/27 04:43:01;;;;;;;10.88;6.78;;;4.70;84.30;;;;;;6243766;28;20071;-79
2021/04/27 04:46:01;;;;;;;18.13;7.20;;;4.70;94.90;;;;;;6226086;28;20034;-82
2021/04/27 04:49:03;;;;;;;14.07;7.32;;;5.20;99.50;;;;;;6227070;28;20091;-81
2021/04/27 04:52:04;;;;;;;15.23;6.80;;;5.00;93.50;;;;;;6227747;28;20026;-83
2021/04/27 04:55:05;;;;;;;14.02;7.20;;;5.50;93.90;;;;;;6227762;28;20036;-84
2021/04/27 04:58:06;;;;;;;18.38;8.10;;;5.70;92.80;;;;;;6211216;28;20464;-83
2021/04/27 05:01:07;;;;;;;9.45;6.95;;;;;;;;;;6225853;28;20033;-76
2021/04/27 05:04:07;;;;;;;10.65;7.70;;;6.60;98.40;;;;;;6244265;28;20514;-76
2021/04/27 05:07:12;;;;;;;15.40;8.75;;;;;;;;;;6211043;28;20029;-76
2021/04/27 05:10:14;;;;;;;10.35;6.93;;;7.30;97.30;;;;;;6243744;28;20086;-79
2021/04/27 05:13:15;;;;;;;11.95;7.13;;;;;;;;;;6243351;28;20029;-80
2021/04/27 05:16:16;;;;;;;10.55;6.93;;;;;;;;;;6243897;28;20037;-75
2021/04/27 05:19:17;;;;;;;9.35;6.70;;;;;;;;;;6245075;28;20441;-77
2021/04/27 05:22:18;;;;;;;7.70;6.20;;;;;;;;;;6244338;28;20044;-77
2021/04/27 05:25:19;;;;;;;22.63;12.75;;;9.40;94.90;;;;;;6243272;28;20040;-78
2021/04/27 05:28:20;;;;;;;9.52;6.57;;;;;;;;;;6226918;28;20468;-77
2021/04/27 05:31:21;;;;;;;10.32;6.45;;;;;;;;;;6226689;28;20029;-76
2021/04/27 05:34:22;;;;;;;13.50;7.30;;;;;;;;;;6243993;28;20372;-75
2021/04/27 05:37:23;;;;;;;9.95;6.85;;;10.40;85.80;;;;;;6243700;28;20025;-77
2021/04/27 05:40:24;;;;;;;9.40;6.50;;;11.00;81.90;;;;;;6226575;28;20037;-77
2021/04/27 05:43:25;;;;;;;9.10;6.28;;;11.00;63.90;;;;;;6224208;28;20156;-77
2021/04/27 05:46:26;;;;;;;8.88;7.65;;;;;;;;;;6240445;28;20030;-77
2021/04/27 05:49:26;;;;;;;17.73;11.35;;;11.10;60.10;;;;;;6241107;28;20026;-80
2021/04/27 05:52:27;;;;;;;8.55;6.32;;;11.50;62.20;;;;;;6224619;28;20510;-78
2021/04/27 05:55:28;;;;;;;8.98;7.30;;;11.80;63.00;;;;;;6209815;28;20471;-79
2021/04/27 05:58:28;;;;;;;19.25;12.80;;;12.30;61.50;;;;;;6225282;28;20472;-79
2021/04/27 06:01:29;;;;;;;10.52;7.78;;;12.70;59.70;;;;;;6240922;28;20562;-77
2021/04/27 06:04:30;;;;;;;8.48;6.03;;;13.00;57.80;;;;;;6225632;28;20172;-78
2021/04/27 06:07:31;;;;;;;9.07;6.72;;;13.50;55.30;;;;;;6241824;28;20029;-77
2021/04/27 06:10:31;;;;;;;7.32;5.55;;;14.10;55.40;;;;;;6225388;28;20069;-78
2021/04/27 06:13:34;;;;;;;7.53;5.63;;;14.80;67.30;;;;;;6225512;28;20384;-80
2021/04/27 06:16:35;;;;;;;7.82;5.93;;;14.70;50.40;;;;;;6241765;28;20452;-78
2021/04/27 06:19:36;;;;;;;8.65;5.90;;;15.00;50.20;;;;;;6242045;28;20171;-79
2021/04/27 06:22:37;;;;;;;7.20;5.82;;;;;;;;;;6241309;28;20112;-77
2021/04/27 06:25:37;;;;;;;10.75;6.43;;;15.30;47.30;;;;;;6241297;28;20037;-79
2021/04/27 06:28:38;;;;;;;11.38;6.25;;;15.30;54.20;;;;;;6241531;28;20446;-77
2021/04/27 06:31:38;;;;;;;9.70;6.65;;;14.80;57.00;;;;;;6225944;28;20033;-79
2021/04/27 06:34:39;;;;;;;14.20;6.00;;;14.40;57.60;;;;;;6209041;28;20479;-77
2021/04/27 06:37:40;;;;;;;9.60;6.13;;;14.50;57.90;;;;;;6225457;28;20034;-80
2021/04/27 06:40:40;;;;;;;9.05;6.10;;;14.80;58.70;;;;;;6225098;28;20033;-82
2021/04/27 06:43:41;;;;;;;7.50;5.47;;;14.70;56.60;;;;;;6224264;28;20053;-81
2021/04/27 06:46:41;;;;;;;13.05;5.63;;;14.90;54.90;;;;;;6241487;28;20750;-78
2021/04/27 06:49:42;;;;;;;8.60;6.15;;;15.30;55.10;;;;;;6242238;28;20038;-78
2021/04/27 06:52:43;;;;;;;10.82;5.32;;;15.20;53.90;;;;;;6224968;28;20107;-78
2021/04/27 06:55:44;;;;;;;8.35;5.30;;;15.40;52.90;;;;;;6225174;28;20113;-77
2021/04/27 06:58:44;;;;;;;10.02;5.45;;;15.50;54.10;;;;;;6241429;28;20033;-79
2021/04/27 07:01:46;;;;;;;9.13;5.70;;;15.50;53.60;;;;;;6241585;28;20975;-78
2021/04/27 07:04:46;;;;;;;9.60;6.07;;;15.60;54.30;;;;;;6225718;28;20163;-78
2021/04/27 07:07:47;;;;;;;6.53;5.18;;;16.00;53.20;;;;;;6246198;28;20065;-78
2021/04/27 07:10:48;;;;;;;9.27;5.13;;;16.40;50.80;;;;;;6246360;28;20029;-80
2021/04/27 07:13:49;;;;;;;8.27;5.50;;;16.80;49.10;;;;;;6213675;28;20056;-79
2021/04/27 07:16:49;;;;;;;11.30;6.15;;;17.00;48.30;;;;;;6213796;28;20120;-78
2021/04/27 07:19:50;;;;;;;11.30;5.53;;;17.20;46.90;;;;;;6229697;28;20087;-78
2021/04/27 07:22:50;;;;;;;11.00;5.45;;;17.50;47.40;;;;;;6229373;28;20121;-79
2021/04/27 07:25:51;;;;;;;10.10;4.90;;;17.80;46.70;;;;;;6229110;28;20036;-79
2021/04/27 07:28:51;;;;;;;8.50;5.80;;;18.00;46.20;;;;;;6246103;28;20030;-79
2021/04/27 07:31:52;;;;;;;10.32;5.80;;;18.00;45.10;;;;;;6245726;28;20047;-81
2021/04/27 07:34:53;;;;;;;9.95;5.53;;;18.10;45.80;;;;;;6244964;28;20523;-81
2021/04/27 07:37:53;;;;;;;12.50;4.85;;;18.10;45.60;;;;;;6243790;28;20021;-78
2021/04/27 07:40:54;;;;;;;9.10;5.32;;;18.40;48.30;;;;;;6245141;28;20392;-81
2021/04/27 07:43:54;;;;;;;7.25;5.22;;;18.70;44.50;;;;;;6209393;28;20049;-79
2021/04/27 07:46:55;;;;;;;6.07;5.20;;;19.50;43.40;;;;;;6242548;28;20855;-79
2021/04/27 07:49:56;;;;;;;9.15;5.60;;;19.10;44.10;;;;;;6227194;28;20037;-79
2021/04/27 07:52:56;;;;;;;8.23;5.57;;;19.70;42.80;;;;;;6227666;28;20116;-79
2021/04/27 07:55:57;;;;;;;9.05;5.57;;;20.30;43.10;;;;;;6228345;28;20045;-78
2021/04/27 07:58:58;;;;;;;9.40;5.28;;;19.40;43.00;;;;;;6244921;28;20025;-81
2021/04/27 08:01:59;;;;;;;6.13;5.25;;;19.20;43.10;;;;;;6244506;28;20537;-78
2021/04/27 08:04:59;;;;;;;7.70;5.13;;;19.00;43.20;;;;;;6228627;28;20087;-78
2021/04/27 08:08:00;;;;;;;9.27;5.07;;;19.00;44.00;;;;;;6244281;28;20033;-77
2021/04/27 08:11:01;;;;;;;8.50;5.93;;;19.10;44.80;;;;;;6245472;28;20029;-76
2021/04/27 08:14:02;;;;;;;9.07;6.03;;;19.40;44.30;;;;;;6244651;28;20391;-80
2021/04/27 08:17:02;;;;;;;8.98;5.28;;;19.60;43.80;;;;;;6227024;28;20635;-82
2021/04/27 08:20:04;;;;;;;9.93;5.07;;;20.00;44.70;;;;;;6246106;28;20059;-82
2021/04/27 08:23:05;;;;;;;9.50;5.13;;;20.50;42.10;;;;;;6244581;28;20045;-81
2021/04/27 08:26:07;;;;;;;8.63;5.15;;;20.70;42.80;;;;;;6212022;28;20056;-79
2021/04/27 08:29:07;;;;;;;9.15;5.20;;;20.70;43.10;;;;;;6227319;28;20061;-80
2021/04/27 08:32:08;;;;;;;6.85;5.57;;;21.20;41.70;;;;;;6227762;28;20472;-80
2021/04/27 08:35:09;;;;;;;8.35;5.57;;;21.50;41.70;;;;;;6211464;28;20033;-80
2021/04/27 08:38:10;;;;;;;8.37;5.60;;;21.30;40.80;;;;;;6228270;28;20164;-81
2021/04/27 08:41:11;;;;;;;9.35;5.15;;;21.40;42.00;;;;;;6227689;28;20037;-81
2021/04/27 08:44:11;;;;;;;8.75;5.95;;;21.70;41.90;;;;;;6227587;28;20462;-80
2021/04/27 08:47:12;;;;;;;8.48;5.28;;;21.80;41.10;;;;;;6243773;28;20100;-80
2021/04/27 08:50:14;;;;;;;7.65;5.68;;;22.10;41.10;;;;;;6243781;28;20030;-80
2021/04/27 08:53:14;;;;;;;9.73;5.95;;;21.90;40.10;;;;;;6244138;28;20040;-79
2021/04/27 08:56:15;;;;;;;8.18;5.00;;;21.90;41.10;;;;;;6210802;28;20368;-80
2021/04/27 08:59:15;;;;;;;11.43;6.07;;;21.90;41.00;;;;;;6244195;28;20029;-81
2021/04/27 09:02:24;;;;;;;9.93;5.72;;;22.30;67.60;;;;;;6210821;28;20104;-81
2021/04/27 09:05:27;;;;;;;6.72;6.03;;;22.30;39.30;;;;;;6228670;28;20064;-80
2021/04/27 09:08:37;;;;;;;11.30;6.53;;;21.90;68.70;;;;;;6243397;28;20030;-78
2021/04/27 09:11:40;;;;;;;8.13;5.88;;;21.70;70.20;;;;;;6226947;28;20037;-80
2021/04/27 09:14:41;;;;;;;13.10;6.70;;;21.50;69.20;;;;;;6195391;28;20468;-84
2021/04/27 09:17:42;;;;;;;7.78;6.18;;;;;;;;;;6227167;28;20036;-81
2021/04/27 09:20:50;;;;;;;11.38;7.15;;;21.80;69.10;;;;;;6244570;28;20384;-82
2021/04/27 09:23:51;;;;;;;9.02;5.93;;;21.60;52.00;;;;;;6210605;28;20064;-82
2021/04/27 09:26:52;;;;;;;8.57;5.82;;;21.80;53.10;;;;;;6226256;28;20033;-79
2021/04/27 09:29:53;;;;;;;10.30;6.78;;;21.30;40.80;;;;;;6242777;28;20029;-80
2021/04/27 09:33:04;;;;;;;8.85;6.55;;;21.40;41.20;;;;;;6210621;28;20124;-80
2021/04/27 09:36:05;;;;;;;9.00;6.93;;;21.30;40.70;;;;;;6227742;28;20041;-81
2021/04/27 09:39:05;;;;;;;9.20;6.40;;;21.30;41.80;;;;;;6226278;28;20108;-78
2021/04/27 09:42:16;;;;;;;11.27;6.70;;;21.50;41.30;;;;;;6242517;28;20440;-79
2021/04/27 09:45:18;;;;;;;10.65;6.28;;;21.30;39.80;;;;;;6242808;28;20048;-80
2021/04/27 09:48:45;;;;;;;12.68;6.20;;;21.30;43.10;;;;;;6209609;28;20064;-79
2021/04/27 09:51:50;;;;;;;10.57;6.90;;;21.30;40.30;;;;;;6244007;28;20026;-81
2021/04/27 09:55:04;;;;;;;13.73;6.50;;;21.60;42.40;;;;;;6242138;28;20025;-82
2021/04/27 09:58:05;;;;;;;7.30;6.20;;;21.70;41.00;;;;;;6242718;28;20373;-82
2021/04/27 10:01:06;;;;;;;11.05;6.55;;;21.50;41.50;;;;;;6243527;28;20056;-82
2021/04/27 10:04:06;;;;;;;8.57;6.70;;;21.60;40.50;;;;;;6209265;28;20396;-80
2021/04/27 10:07:07;;;;;;;9.75;6.38;;;22.00;41.30;;;;;;6225507;28;20103;-81
2021/04/27 10:10:09;;;;;;;8.85;6.38;;;22.10;42.00;;;;;;6225616;28;20425;-83
2021/04/27 10:13:10;;;;;;;9.00;5.57;;;22.00;40.10;;;;;;6241974;28;20080;-79
2021/04/27 10:16:10;;;;;;;18.90;7.20;;;22.00;41.20;;;;;;6225966;28;20029;-79
2021/04/27 10:19:11;;;;;;;9.32;6.20;;;22.10;41.20;;;;;;6209007;28;20033;-82
2021/04/27 10:22:12;;;;;;;9.00;6.32;;;22.30;40.90;;;;;;6226037;28;20064;-81
2021/04/27 10:25:20;;;;;;;9.02;6.68;;;22.30;41.10;;;;;;6238594;28;20100;-80
2021/04/27 10:28:21;;;;;;;10.73;7.18;;;22.30;40.00;;;;;;6224683;28;20124;-81
2021/04/27 10:31:22;;;;;;;8.68;6.93;;;21.90;40.70;;;;;;6241665;28;20040;-81
2021/04/27 10:34:22;;;;;;;9.95;7.10;;;22.00;41.70;;;;;;6224688;28;20112;-81
2021/04/27 10:37:27;;;;;;;7.68;6.25;;;22.50;41.90;;;;;;6234032;28;20059;-85
2021/04/27 10:40:52;;;;;;;8.75;5.97;;;22.30;41.20;;;;;;6208028;28;20045;-84
2021/04/27 10:43:59;;;;;;;8.13;7.28;;;22.10;39.80;;;;;;6242263;28;20057;-83
2021/04/27 10:47:02;;;;;;;10.25;6.97;;;22.20;40.90;;;;;;6208551;28;20103;-82
2021/04/27 10:50:03;;;;;;;7.95;6.65;;;22.00;40.90;;;;;;6208785;28;20056;-81
2021/04/27 10:53:29;;;;;;;10.02;6.78;;;22.30;41.60;;;;;;6223741;28;20439;-81
2021/04/27 10:56:47;;;;;;;10.38;7.50;;;22.10;41.30;;;;;;6241415;28;20102;-81
2021/04/27 10:59:58;;;;;;;9.13;7.32;;;22.00;39.90;;;;;;6225577;28;20099;-83
2021/04/27 11:03:17;;;;;;;10.37;7.27;;;21.80;40.90;;;;;;6242513;28;20092;-79
2021/04/27 11:06:18;;;;;;;9.23;7.78;;;21.80;42.30;;;;;;6225250;28;20084;-80
2021/04/27 11:09:19;;;;;;;11.25;7.85;;;21.80;41.00;;;;;;6224293;28;20030;-82
2021/04/27 11:12:28;;;;;;;7.95;6.35;;;21.70;42.10;;;;;;6208075;28;20116;-82
2021/04/27 11:15:33;;;;;;;11.13;7.72;;;21.70;42.70;;;;;;6241995;28;20356;-81
2021/04/27 11:18:33;;;;;;;10.65;7.65;;;21.70;42.10;;;;;;6224800;28;20029;-81
2021/04/27 11:21:34;;;;;;;13.85;7.40;;;21.60;43.00;;;;;;6241717;28;20064;-84
2021/04/27 11:24:39;;;;;;;9.52;7.75;;;21.40;41.70;;;;;;6224595;28;20037;-82
2021/04/27 11:27:39;;;;;;;9.40;7.80;;;21.20;43.80;;;;;;6240784;28;20028;-82
2021/04/27 11:30:40;;;;;;;9.07;7.47;;;21.30;43.10;;;;;;6240574;28;20030;-83
2021/04/27 11:33:40;;;;;;;14.85;8.13;;;21.50;45.60;;;;;;6207394;28;20708;-79
2021/04/27 11:36:41;;;;;;;7.85;6.95;;;21.70;43.10;;;;;;6222955;28;20025;-78
2021/04/27 11:39:42;;;;;;;12.15;8.30;;;;;;;;;;6207868;28;20112;-78
2021/04/27 11:42:43;;;;;;;11.98;8.30;;;21.50;71.30;;;;;;6241721;28;20098;-79
2021/04/27 11:45:48;;;;;;;10.50;7.05;;;21.40;71.60;;;;;;6242467;28;20092;-82
2021/04/27 11:48:53;;;;;;;11.95;7.88;;;21.90;55.80;;;;;;6224635;28;20080;-80
2021/04/27 11:51:53;;;;;;;10.75;7.93;;;21.50;72.60;;;;;;6227253;28;20833;-80
2021/04/27 11:54:54;;;;;;;20.65;8.63;;;21.30;68.60;;;;;;6246758;28;20116;-80
2021/04/27 11:58:17;;;;;;;21.20;8.23;;;21.50;56.10;;;;;;6245349;28;20034;-86
2021/04/27 12:01:18;;;;;;;11.13;8.73;;;;;;;;;;6245188;28;20038;-80
2021/04/27 12:04:19;;;;;;;12.15;8.05;;;21.20;54.00;;;;;;6226545;28;20041;-78
2021/04/27 12:07:20;;;;;;;12.20;8.00;;;;;;;;;;6246297;28;20047;-78
2021/04/27 12:10:20;;;;;;;11.68;7.97;;;21.30;53.50;;;;;;6243644;28;20029;-81
2021/04/27 12:13:22;;;;;;;12.68;8.48;;;21.30;44.90;;;;;;6228104;28;20196;-79
2021/04/27 12:16:30;;;;;;;10.90;7.88;;;21.30;43.20;;;;;;6244387;28;20075;-78
2021/04/27 12:19:31;;;;;;;12.45;8.50;;;21.10;42.60;;;;;;6227853;28;20032;-79
2021/04/27 12:22:32;;;;;;;12.35;9.00;;;21.10;45.20;;;;;;6244699;28;20025;-79
2021/04/27 12:25:33;;;;;;;11.63;8.23;;;21.00;44.40;;;;;;6246110;28;20387;-78
2021/04/27 12:28:35;;;;;;;10.07;8.60;;;20.90;42.70;;;;;;6228305;28;20064;-78
2021/04/27 12:31:37;;;;;;;13.02;8.98;;;20.60;43.70;;;;;;6227541;28;20386;-78
2021/04/27 12:34:53;;;;;;;10.50;9.40;;;20.70;63.60;;;;;;6223570;28;20042;-79
2021/04/27 12:38:02;;;;;;;10.70;7.70;;;20.60;47.60;;;;;;6244050;28;20484;-81
2021/04/27 12:41:03;;;;;;;12.07;8.88;;;20.90;44.70;;;;;;6225447;28;20048;-80
2021/04/27 12:44:25;;;;;;;18.17;8.52;;;21.00;44.40;;;;;;6227358;28;20072;-80
2021/04/27 12:47:31;;;;;;;11.93;9.18;;;20.90;44.00;;;;;;6243628;28;20034;-79
2021/04/27 12:50:31;;;;;;;11.90;8.38;;;20.80;44.60;;;;;;6227800;28;20021;-79
2021/04/27 12:53:40;;;;;;;14.90;8.57;;;20.90;44.20;;;;;;6227792;28;20040;-80
2021/04/27 12:56:40;;;;;;;13.55;9.38;;;20.80;45.10;;;;;;6228490;28;20026;-75
2021/04/27 12:59:42;;;;;;;12.90;9.65;;;20.80;45.30;;;;;;6243128;28;20163;-76
2021/04/27 13:02:43;;;;;;;12.70;9.35;;;20.90;45.40;;;;;;6243737;28;20502;-78
2021/04/27 13:05:44;;;;;;;11.82;8.57;;;20.90;45.10;;;;;;6227237;28;20567;-77
2021/04/27 13:08:50;;;;;;;15.30;8.23;;;20.90;45.10;;;;;;6226925;28;20543;-78
2021/04/27 13:12:09;;;;;;;11.90;9.10;;;21.00;44.80;;;;;;6227874;28;20029;-77
2021/04/27 13:15:17;;;;;;;15.23;9.82;;;21.30;61.30;;;;;;6227693;28;20036;-78
2021/04/27 13:18:21;;;;;;;13.75;10.05;;;21.10;43.70;;;;;;6243598;28;20029;-78
2021/04/27 13:21:22;;;;;;;16.08;8.63;;;20.90;58.70;;;;;;6226026;28;20022;-78
2021/04/27 13:24:23;;;;;;;13.10;8.50;;;21.00;72.60;;;;;;6244139;28;20065;-79
2021/04/27 13:27:25;;;;;;;15.68;9.30;;;21.10;61.80;;;;;;6244514;28;20380;-78
2021/04/27 13:30:35;;;;;;;10.98;9.50;;;21.20;71.80;;;;;;6243157;28;20033;-77
2021/04/27 13:33:42;;;;;;;13.38;8.85;;;21.20;57.50;;;;;;6244113;28;20030;-76
2021/04/27 13:36:43;;;;;;;12.65;8.93;;;21.30;73.90;;;;;;6243292;28;20037;-78
2021/04/27 13:39:44;;;;;;;11.95;9.15;;;;;;;;;;6243087;28;20029;-78
2021/04/27 13:42:46;;;;;;;14.82;9.52;;;21.20;56.90;;;;;;6242560;28;20049;-83
2021/04/27 13:45:48;;;;;;;;;;;21.30;58.00;;;;;;6243113;28;20036;-86
2021/04/27 13:48:49;;;;;;;12.75;9.85;;;21.10;47.40;;;;;;6242291;28;19912;-80
2021/04/27 13:51:50;;;;;;;10.80;9.07;;;;;;;;;;6242523;28;20472;-81
2021/04/27 13:54:53;;;;;;;13.55;9.50;;;21.10;42.50;;;;;;6226186;28;20025;-81
2021/04/27 13:57:55;;;;;;;11.38;9.43;;;21.10;46.70;;;;;;6226281;28;20059;-85
2021/04/27 14:00:58;;;;;;;11.82;9.98;;;21.20;47.40;;;;;;6209063;28;20140;-80
2021/04/27 14:04:05;;;;;;;11.43;9.48;;;21.20;44.50;;;;;;6226382;28;20057;-82
2021/04/27 14:07:06;;;;;;;12.55;9.32;;;21.20;43.10;;;;;;6226352;28;20044;-82
2021/04/27 14:10:08;;;;;;;10.60;9.30;;;21.20;46.30;;;;;;6225930;28;20034;-81
2021/04/27 14:13:09;;;;;;;12.98;9.55;;;21.30;44.20;;;;;;6225209;28;20076;-80
2021/04/27 14:16:10;;;;;;;11.65;8.70;;;21.50;42.10;;;;;;6243433;28;20022;-80
2021/04/27 14:19:10;;;;;;;13.45;9.93;;;21.30;45.70;;;;;;6243492;28;20031;-80
2021/04/27 14:22:11;;;;;;;11.88;10.00;;;;;;;;;;6225598;28;20039;-81
2021/04/27 14:25:13;;;;;;;12.90;9.13;;;21.30;40.50;;;;;;6225584;28;20068;-81
2021/04/27 14:28:15;;;;;;;11.47;9.23;;;21.10;45.30;;;;;;6236730;28;20033;-80
2021/04/27 14:31:15;;;;;;;12.25;9.15;;;21.30;45.70;;;;;;6224286;28;20458;-80
2021/04/27 14:34:16;;;;;;;11.27;9.20;;;21.10;46.90;;;;;;6241339;28;20030;-81
2021/04/27 14:37:17;;;;;;;11.55;9.38;;;21.10;59.80;;;;;;6208563;28;20468;-83
2021/04/27 14:40:18;;;;;;;9.77;8.52;;;;;;;;;;6208817;28;20030;-81
2021/04/27 14:43:21;;;;;;;12.20;8.67;;;;;;;;;;6225142;28;20435;-82
2021/04/27 14:46:22;;;;;;;11.93;8.93;;;21.20;41.30;;;;;;6241839;28;20268;-82
2021/04/27 14:49:23;;;;;;;10.77;9.07;;;;;;;;;;6241160;28;20539;-83
2021/04/27 14:52:24;;;;;;;12.57;9.23;;;21.00;62.00;;;;;;6241600;28;20034;-81
2021/04/27 14:55:26;;;;;;;12.15;9.40;;;20.90;45.40;;;;;;6225106;28;20030;-81
2021/04/27 14:58:26;;;;;;;;;;;21.00;46.70;;;;;;6225455;28;20472;-82
2021/04/27 15:01:31;;;;;;;11.80;9.45;;;20.70;45.60;;;;;;6225425;28;19915;-81
2021/04/27 15:04:31;;;;;;;11.63;9.20;;;20.60;43.20;;;;;;6223571;28;20488;-81
2021/04/27 15:07:32;;;;;;;13.40;9.63;;;20.60;47.40;;;;;;6238910;28;20098;-83
2021/04/27 15:10:33;;;;;;;12.57;9.45;;;20.60;45.20;;;;;;6237155;28;20025;-82
2021/04/27 15:13:33;;;;;;;10.95;9.20;;;20.60;44.50;;;;;;6207777;28;20033;-81
2021/04/27 15:16:38;;;;;;;13.20;9.70;;;20.60;44.90;;;;;;6208442;28;20033;-82
2021/04/27 15:19:38;;;;;;;11.27;9.55;;;20.50;42.50;;;;;;6241728;28;20136;-82
2021/04/27 15:22:39;;;;;;;12.48;9.23;;;20.30;45.40;;;;;;6225008;28;20033;-82
2021/04/27 15:25:40;;;;;;;11.07;8.63;;;20.40;43.80;;;;;;6225594;28;20491;-82
2021/04/27 15:28:41;;;;;;;13.18;9.85;;;20.40;45.10;;;;;;6245744;28;20033;-82
2021/04/27 15:31:46;;;;;;;11.90;9.80;;;20.50;44.20;;;;;;6246473;28;20087;-82
2021/04/27 15:34:46;;;;;;;10.45;9.30;;;20.30;43.20;;;;;;6229903;28;20033;-82
2021/04/27 15:37:48;;;;;;;10.45;9.35;;;20.70;44.90;;;;;;6228758;28;20037;-82
2021/04/27 15:40:49;;;;;;;10.95;9.05;;;;;;;;;;6213040;28;20388;-81
2021/04/27 15:43:50;;;;;;;13.68;9.30;;;20.30;43.50;;;;;;6245209;28;20088;-80
2021/04/27 15:46:50;;;;;;;10.55;8.98;;;20.00;46.20;;;;;;6229205;28;20395;-81
2021/04/27 15:49:51;;;;;;;11.88;8.43;;;20.40;46.00;;;;;;6246183;28;20025;-81
2021/04/27 15:52:51;;;;;;;12.45;8.88;;;20.10;46.60;;;;;;6212984;28;20483;-81
2021/04/27 15:55:52;;;;;;;10.73;9.10;;;19.90;45.60;;;;;;6212602;28;20079;-84